Time;durP1;ratioP1;P1;durP2;ratioP2;P2;SDS_P1;SDS_P2;PMS_P1;PMS_P2;Temp;Humidity;BMP_temperature;BMP_pressure;BME280_temperature;BME280_humidity;BME280_pressure;Samples;Min_cycle;Max_cycle;Signal;HPM_P1;HPM_P2
2022/03/06 00:02:10;;;;;;;20.60;10.20;;;-1.10;99.90;;;;;;4918143;29;20078;-84
2022/03/06 00:04:36;;;;;;;20.93;9.93;;;-1.20;99.90;;;;;;4934512;29;20047;-83
2022/03/06 00:07:01;;;;;;;22.77;11.27;;;-1.00;99.90;;;;;;4918759;29;20039;-83
2022/03/06 00:09:27;;;;;;;24.37;11.03;;;-1.20;99.90;;;;;;4935310;29;20043;-83
2022/03/06 00:11:53;;;;;;;23.13;11.20;;;-1.20;99.90;;;;;;4934986;29;20480;-83
2022/03/06 00:14:19;;;;;;;23.83;10.70;;;-1.30;99.90;;;;;;4917890;29;20052;-83
2022/03/06 00:16:45;;;;;;;22.63;10.60;;;-1.30;99.90;;;;;;4918610;29;20404;-83
2022/03/06 00:19:11;;;;;;;21.13;10.57;;;-1.30;99.90;;;;;;4917343;29;20040;-83
2022/03/06 00:21:37;;;;;;;22.43;11.43;;;-1.30;99.90;;;;;;4918634;29;20411;-84
2022/03/06 00:24:03;;;;;;;24.97;11.33;;;-1.30;99.90;;;;;;4918480;29;20059;-83
2022/03/06 00:26:29;;;;;;;23.83;12.00;;;-1.40;99.90;;;;;;4917825;29;20075;-83
2022/03/06 00:28:55;;;;;;;22.43;11.13;;;-1.40;99.90;;;;;;4918369;29;20130;-83
2022/03/06 00:31:23;;;;;;;23.60;11.90;;;-1.40;99.90;;;;;;4934985;29;20179;-83
2022/03/06 00:33:52;;;;;;;24.87;12.00;;;-1.40;99.90;;;;;;4917658;29;20071;-83
2022/03/06 00:36:18;;;;;;;22.27;11.43;;;-1.40;99.90;;;;;;4917899;29;20048;-83
2022/03/06 00:38:45;;;;;;;24.83;11.67;;;-1.40;99.90;;;;;;4918493;29;20040;-83
2022/03/06 00:41:12;;;;;;;24.97;12.80;;;-1.50;99.90;;;;;;4916825;29;20052;-83
2022/03/06 00:43:38;;;;;;;25.60;12.17;;;-1.50;99.90;;;;;;4917878;29;20134;-83
2022/03/06 00:46:03;;;;;;;23.77;11.80;;;-1.40;99.90;;;;;;4918701;29;20471;-83
2022/03/06 00:48:29;;;;;;;24.63;10.93;;;-1.50;99.90;;;;;;4917092;29;20048;-83
2022/03/06 00:50:55;;;;;;;21.33;11.23;;;-1.50;99.90;;;;;;4935230;29;20452;-83
2022/03/06 00:53:20;;;;;;;26.03;11.97;;;-1.50;99.90;;;;;;4918253;29;20082;-83
2022/03/06 00:55:46;;;;;;;24.63;12.67;;;-1.50;99.90;;;;;;4934554;29;20048;-83
2022/03/06 00:58:12;;;;;;;26.57;12.53;;;-1.50;99.90;;;;;;4917890;29;20055;-83
2022/03/06 01:00:44;;;;;;;28.70;14.40;;;-1.60;99.90;;;;;;4917826;29;20044;-83
2022/03/06 01:03:11;;;;;;;27.43;13.63;;;-1.60;99.90;;;;;;4917294;29;20043;-83
2022/03/06 01:05:37;;;;;;;25.30;13.30;;;-1.60;99.90;;;;;;4917941;29;20361;-83
2022/03/06 01:08:04;;;;;;;24.37;13.27;;;-1.60;99.90;;;;;;4917088;29;20044;-83
2022/03/06 01:10:31;;;;;;;25.93;13.00;;;-1.60;99.90;;;;;;4921267;29;20496;-83
2022/03/06 01:12:57;;;;;;;25.17;12.83;;;-1.60;99.90;;;;;;4921413;29;20094;-83
2022/03/06 01:15:23;;;;;;;24.53;12.13;;;-1.60;99.90;;;;;;4920182;29;20396;-83
2022/03/06 01:17:49;;;;;;;26.17;12.93;;;-1.50;99.90;;;;;;4921653;29;20090;-83
2022/03/06 01:20:17;;;;;;;29.07;14.00;;;-1.60;99.90;;;;;;4921074;29;20407;-83
2022/03/06 01:22:43;;;;;;;25.43;12.60;;;-1.70;99.90;;;;;;4920847;29;20047;-83
2022/03/06 01:25:08;;;;;;;24.17;13.27;;;-1.70;99.90;;;;;;4921040;29;20051;-83
2022/03/06 01:27:34;;;;;;;24.87;12.80;;;-1.70;99.90;;;;;;4921779;29;20142;-83
2022/03/06 01:30:00;;;;;;;27.47;13.70;;;-1.70;99.90;;;;;;4920084;29;20138;-83
2022/03/06 01:32:26;;;;;;;26.77;13.43;;;-1.70;99.90;;;;;;4938348;29;20044;-83
2022/03/06 01:34:51;;;;;;;24.13;12.83;;;-1.70;99.90;;;;;;4938413;29;20039;-83
2022/03/06 01:37:17;;;;;;;24.87;13.27;;;-1.70;99.90;;;;;;4920551;29;20058;-83
2022/03/06 01:39:42;;;;;;;24.40;12.07;;;-1.80;99.90;;;;;;4921499;29;20057;-83
2022/03/06 01:42:08;;;;;;;24.43;13.63;;;-1.80;99.90;;;;;;4921501;29;20078;-83
2022/03/06 01:44:33;;;;;;;23.37;12.17;;;-1.70;99.90;;;;;;4920714;29;20083;-83
2022/03/06 01:46:59;;;;;;;28.63;13.70;;;-1.80;99.90;;;;;;4921169;29;20048;-83
2022/03/06 01:49:25;;;;;;;21.77;11.97;;;-1.70;99.90;;;;;;4920362;29;20114;-83
2022/03/06 01:51:50;;;;;;;24.60;13.10;;;-1.70;99.90;;;;;;4920172;29;20058;-83
2022/03/06 01:54:16;;;;;;;26.73;13.90;;;-1.80;99.90;;;;;;4920748;29;20047;-83
2022/03/06 01:56:42;;;;;;;29.47;14.37;;;-1.80;99.90;;;;;;4920769;29;20118;-83
2022/03/06 01:59:09;;;;;;;24.60;13.23;;;-1.80;99.90;;;;;;4919557;29;20051;-83
2022/03/06 02:01:35;;;;;;;25.13;12.93;;;-1.80;99.90;;;;;;4920972;29;20047;-83
2022/03/06 02:04:01;;;;;;;26.60;13.67;;;-1.80;99.90;;;;;;4938045;29;20040;-83
2022/03/06 02:06:27;;;;;;;27.90;14.17;;;-1.80;99.90;;;;;;4920344;29;20467;-82
2022/03/06 02:08:53;;;;;;;30.77;14.30;;;-1.80;99.90;;;;;;4920740;29;20055;-83
2022/03/06 02:11:24;;;;;;;26.77;14.10;;;-1.90;99.90;;;;;;4919211;29;20404;-83
2022/03/06 02:13:50;;;;;;;27.53;13.60;;;-1.80;99.90;;;;;;4920230;29;20052;-83
2022/03/06 02:16:16;;;;;;;24.53;14.03;;;-1.80;99.90;;;;;;4937166;29;20062;-83
2022/03/06 02:18:41;;;;;;;25.50;12.57;;;-1.80;99.90;;;;;;4919758;29;20048;-83
2022/03/06 02:21:12;;;;;;;23.83;11.40;;;-1.80;99.90;;;;;;4920151;29;20071;-83
2022/03/06 02:23:39;;;;;;;23.83;11.90;;;-1.90;99.90;;;;;;4920289;29;20047;-83
2022/03/06 02:26:06;;;;;;;26.03;13.00;;;-1.90;99.90;;;;;;4919376;29;20047;-83
2022/03/06 02:28:31;;;;;;;25.67;13.40;;;-1.70;99.90;;;;;;4919934;29;20044;-83
2022/03/06 02:30:57;;;;;;;23.17;12.33;;;-1.90;99.90;;;;;;4920063;29;20055;-84
2022/03/06 02:33:23;;;;;;;25.23;12.67;;;-1.90;99.90;;;;;;4919226;29;20487;-83
2022/03/06 02:35:49;;;;;;;22.83;11.60;;;-1.90;99.90;;;;;;4920098;29;20052;-83
2022/03/06 02:38:15;;;;;;;24.20;12.37;;;-1.90;99.90;;;;;;4919716;29;20048;-83
2022/03/06 02:40:43;;;;;;;22.53;12.17;;;-1.90;99.90;;;;;;4919411;29;20160;-83
2022/03/06 02:43:12;;;;;;;28.77;13.13;;;-1.90;99.90;;;;;;4936582;29;20055;-83
2022/03/06 02:45:40;;;;;;;23.67;11.93;;;-2.00;99.90;;;;;;4920105;29;20063;-83
2022/03/06 02:48:07;;;;;;;23.90;12.00;;;-1.80;99.90;;;;;;4918618;29;20059;-83
2022/03/06 02:50:36;;;;;;;23.93;12.53;;;-2.00;99.90;;;;;;4919371;29;20555;-83
2022/03/06 02:53:04;;;;;;;22.83;11.83;;;-2.00;99.90;;;;;;4919599;29;20047;-83
2022/03/06 02:55:30;;;;;;;21.20;10.97;;;-2.00;99.90;;;;;;4918853;29;20055;-83
2022/03/06 02:57:56;;;;;;;25.23;12.10;;;-2.00;99.90;;;;;;4919459;29;20084;-83
2022/03/06 03:00:24;;;;;;;24.00;12.23;;;-1.90;99.90;;;;;;4916718;29;20051;-83
2022/03/06 03:02:50;;;;;;;21.20;11.20;;;-1.90;99.90;;;;;;4899177;29;20408;-82
2022/03/06 03:05:17;;;;;;;21.03;11.00;;;-1.90;99.90;;;;;;4915890;29;20063;-83
2022/03/06 03:07:45;;;;;;;21.47;10.87;;;-1.90;99.90;;;;;;4899437;29;20107;-83
2022/03/06 03:10:13;;;;;;;21.93;11.30;;;-1.80;99.90;;;;;;4900291;29;20044;-83
2022/03/06 03:12:39;;;;;;;22.03;11.63;;;-1.80;99.90;;;;;;4889621;29;20412;-83
2022/03/06 03:15:07;;;;;;;21.33;10.27;;;-1.70;99.90;;;;;;4896159;29;20060;-83
2022/03/06 03:17:32;;;;;;;23.17;11.43;;;-1.70;99.90;;;;;;4899439;29;20048;-83
2022/03/06 03:19:58;;;;;;;20.67;10.87;;;-1.70;99.90;;;;;;4900441;29;20048;-83
2022/03/06 03:22:23;;;;;;;21.83;11.43;;;-1.70;99.90;;;;;;4899106;29;20055;-83
2022/03/06 03:24:49;;;;;;;20.80;11.13;;;-1.60;99.90;;;;;;4900212;29;20056;-83
2022/03/06 03:27:14;;;;;;;17.90;8.73;;;-1.60;99.90;;;;;;4917038;29;20120;-83
2022/03/06 03:29:40;;;;;;;18.47;10.07;;;-1.50;99.90;;;;;;4899354;29;20070;-83
2022/03/06 03:32:06;;;;;;;22.73;11.87;;;-1.30;99.90;;;;;;4899180;29;20056;-82
2022/03/06 03:34:32;;;;;;;20.60;10.57;;;-1.50;99.90;;;;;;4900319;29;20066;-83
2022/03/06 03:36:57;;;;;;;21.03;10.63;;;-1.50;99.90;;;;;;4899232;29;20043;-83
2022/03/06 03:39:23;;;;;;;21.17;11.10;;;-1.50;99.90;;;;;;4899947;29;20748;-83
2022/03/06 03:41:49;;;;;;;21.37;10.67;;;-1.40;99.90;;;;;;4900014;29;20044;-83
2022/03/06 03:44:14;;;;;;;20.20;11.30;;;-1.30;99.90;;;;;;4898530;29;20445;-83
2022/03/06 03:46:40;;;;;;;21.80;10.97;;;-1.40;99.90;;;;;;4900030;29;20044;-82
2022/03/06 03:49:06;;;;;;;20.87;10.87;;;-1.40;99.90;;;;;;4899875;29;20083;-83
2022/03/06 03:51:31;;;;;;;20.03;10.50;;;-1.40;99.90;;;;;;4899166;29;20052;-83
2022/03/06 03:53:57;;;;;;;17.90;10.03;;;-1.40;99.90;;;;;;4899733;29;20131;-83
2022/03/06 03:56:23;;;;;;;23.50;10.87;;;-1.40;99.90;;;;;;4899266;29;20366;-82
2022/03/06 03:58:49;;;;;;;17.37;10.10;;;-1.30;99.90;;;;;;4899240;29;20044;-83
2022/03/06 04:01:17;;;;;;;19.70;10.23;;;-1.30;99.90;;;;;;4899232;29;20051;-83
2022/03/06 04:03:43;;;;;;;18.80;10.10;;;-1.30;99.90;;;;;;4898930;29;20048;-82
2022/03/06 04:06:08;;;;;;;18.57;10.17;;;-1.30;99.90;;;;;;4899533;29;20559;-83
2022/03/06 04:08:34;;;;;;;22.63;11.17;;;-1.30;99.90;;;;;;4899599;29;20949;-82
2022/03/06 04:10:59;;;;;;;18.80;10.00;;;-1.30;99.90;;;;;;4898921;29;20095;-83
2022/03/06 04:13:28;;;;;;;18.50;10.30;;;-1.20;99.90;;;;;;4899181;29;20067;-83
2022/03/06 04:15:54;;;;;;;18.73;10.27;;;-1.20;99.90;;;;;;4916937;29;20052;-83
2022/03/06 04:18:19;;;;;;;19.90;10.07;;;-1.20;99.90;;;;;;4898673;29;20059;-82
2022/03/06 04:20:45;;;;;;;19.07;10.40;;;-1.30;99.90;;;;;;4899433;29;20063;-82
2022/03/06 04:23:11;;;;;;;19.13;9.83;;;-1.20;99.90;;;;;;4899148;29;20068;-83
2022/03/06 04:25:36;;;;;;;17.63;9.73;;;-1.30;99.90;;;;;;4898638;29;20079;-83
2022/03/06 04:28:02;;;;;;;19.60;10.33;;;-1.30;99.90;;;;;;4899724;29;20078;-82
2022/03/06 04:30:28;;;;;;;19.67;10.20;;;-1.40;99.90;;;;;;4899098;29;20040;-83
2022/03/06 04:32:54;;;;;;;16.70;9.27;;;-1.30;99.90;;;;;;4915978;29;20044;-83
2022/03/06 04:35:19;;;;;;;21.17;10.37;;;-1.40;99.90;;;;;;4898923;29;20401;-83
2022/03/06 04:37:45;;;;;;;20.20;10.77;;;-1.40;99.90;;;;;;4899598;29;20191;-83
2022/03/06 04:40:11;;;;;;;18.47;10.37;;;-1.40;99.90;;;;;;4898251;29;20043;-83
2022/03/06 04:42:37;;;;;;;18.67;9.97;;;-1.50;99.90;;;;;;4899289;29;20396;-83
2022/03/06 04:45:03;;;;;;;20.47;10.63;;;-1.50;99.90;;;;;;4902217;29;20079;-83
2022/03/06 04:47:29;;;;;;;19.07;10.53;;;-1.50;99.90;;;;;;4919169;29;20052;-82
2022/03/06 04:49:55;;;;;;;18.07;10.40;;;-1.50;99.90;;;;;;4902946;29;20084;-83
2022/03/06 04:52:20;;;;;;;19.40;10.10;;;-1.60;99.90;;;;;;4902693;29;20052;-83
2022/03/06 04:54:46;;;;;;;19.30;10.17;;;-1.60;99.90;;;;;;4902866;29;20067;-83
2022/03/06 04:57:12;;;;;;;17.33;10.23;;;-1.60;99.90;;;;;;4902662;29;20506;-83
2022/03/06 04:59:38;;;;;;;19.17;10.30;;;-1.60;99.90;;;;;;4903058;29;20075;-83
2022/03/06 05:02:04;;;;;;;19.63;10.47;;;-1.60;99.90;;;;;;4929864;29;20039;-83
2022/03/06 05:04:29;;;;;;;18.10;9.57;;;-1.60;99.90;;;;;;4937732;29;20087;-83
2022/03/06 05:06:55;;;;;;;16.40;9.53;;;-1.70;99.90;;;;;;4940137;29;20512;-83
2022/03/06 05:09:20;;;;;;;18.13;9.47;;;-1.60;99.90;;;;;;4940319;29;20133;-83
2022/03/06 05:11:46;;;;;;;19.97;10.00;;;-1.70;99.90;;;;;;4940701;29;20106;-82
2022/03/06 05:14:12;;;;;;;18.53;10.60;;;-1.70;99.90;;;;;;4939150;29;20055;-82
2022/03/06 05:16:37;;;;;;;16.50;9.23;;;-1.80;99.90;;;;;;4940401;29;20059;-82
2022/03/06 05:19:03;;;;;;;16.90;9.13;;;-1.80;99.90;;;;;;4940394;29;20051;-83
2022/03/06 05:21:29;;;;;;;18.23;9.40;;;-1.70;99.90;;;;;;4940479;29;20043;-82
2022/03/06 05:23:54;;;;;;;18.83;9.90;;;-1.80;99.90;;;;;;4943509;29;20055;-83
2022/03/06 05:26:20;;;;;;;17.13;8.60;;;-1.80;99.90;;;;;;4939890;29;20039;-83
2022/03/06 05:28:45;;;;;;;17.50;8.57;;;-1.80;99.90;;;;;;4956606;29;20047;-82
2022/03/06 05:31:11;;;;;;;17.63;8.73;;;-1.80;99.90;;;;;;4939608;29;20051;-83
2022/03/06 05:33:37;;;;;;;18.23;9.17;;;-1.80;99.90;;;;;;4957376;29;20054;-83
2022/03/06 05:36:03;;;;;;;17.03;8.67;;;-1.80;99.90;;;;;;4956566;29;20047;-82
2022/03/06 05:38:28;;;;;;;16.97;9.53;;;-1.80;99.90;;;;;;4940022;29;20057;-82
2022/03/06 05:40:54;;;;;;;17.00;9.40;;;-1.90;99.90;;;;;;4940128;29;20130;-83
2022/03/06 05:43:20;;;;;;;18.63;9.83;;;-1.90;99.90;;;;;;4939011;29;20046;-83
2022/03/06 05:45:50;;;;;;;16.07;9.23;;;-1.90;99.90;;;;;;4940156;29;20059;-82
2022/03/06 05:48:19;;;;;;;18.03;8.63;;;-1.90;99.90;;;;;;4939732;29;20051;-82
2022/03/06 05:50:44;;;;;;;18.37;9.87;;;-2.00;99.90;;;;;;4939149;29;20407;-83
2022/03/06 05:53:10;;;;;;;17.40;9.63;;;-2.00;99.90;;;;;;4939547;29;20044;-82
2022/03/06 05:55:36;;;;;;;18.00;9.40;;;-2.00;99.90;;;;;;4939483;29;20055;-83
2022/03/06 05:58:02;;;;;;;17.00;8.27;;;-2.00;99.90;;;;;;4956299;29;20046;-82
2022/03/06 06:00:28;;;;;;;18.90;9.10;;;-2.00;99.90;;;;;;4939624;29;20491;-82
2022/03/06 06:02:55;;;;;;;17.10;8.60;;;-2.00;99.90;;;;;;4939494;29;20051;-82
2022/03/06 06:05:22;;;;;;;15.40;8.67;;;-2.10;99.90;;;;;;4938661;29;20399;-82
2022/03/06 06:07:51;;;;;;;17.50;8.50;;;-2.00;99.90;;;;;;4939492;29;20094;-82
2022/03/06 06:10:18;;;;;;;18.97;9.10;;;-2.10;99.90;;;;;;4938118;29;20047;-82
2022/03/06 06:12:43;;;;;;;17.23;8.43;;;-2.00;99.90;;;;;;4939078;29;20053;-82
2022/03/06 06:15:10;;;;;;;19.73;8.50;;;-2.00;99.90;;;;;;4938874;29;20047;-82
2022/03/06 06:17:36;;;;;;;18.13;8.43;;;-2.00;99.90;;;;;;4938773;29;20118;-83
2022/03/06 06:20:06;;;;;;;16.17;7.87;;;-2.00;99.90;;;;;;4927057;29;20496;-84
2022/03/06 06:22:32;;;;;;;16.27;8.13;;;-2.00;99.90;;;;;;4937626;29;20126;-88
2022/03/06 06:24:58;;;;;;;17.17;8.73;;;-1.90;99.90;;;;;;4919467;29;20134;-89
2022/03/06 06:27:24;;;;;;;14.33;7.10;;;-1.90;99.90;;;;;;4920234;29;20055;-88
2022/03/06 06:29:50;;;;;;;15.37;7.20;;;-0.90;99.90;;;;;;4920386;29;20051;-88
2022/03/06 06:32:15;;;;;;;13.80;7.57;;;-1.70;99.90;;;;;;4919306;29;20087;-89
2022/03/06 06:34:41;;;;;;;14.93;7.43;;;-1.70;99.90;;;;;;4920306;29;20047;-87
2022/03/06 06:37:08;;;;;;;17.17;7.17;;;-1.70;99.90;;;;;;4919776;29;20079;-86
2022/03/06 06:39:33;;;;;;;17.43;6.70;;;-0.60;99.90;;;;;;4919450;29;20044;-83
2022/03/06 06:42:03;;;;;;;14.90;7.23;;;-1.50;99.90;;;;;;4920407;29;20090;-88
2022/03/06 06:44:29;;;;;;;15.53;7.07;;;-1.40;99.90;;;;;;4920605;29;20098;-90
2022/03/06 06:46:55;;;;;;;15.30;6.50;;;-1.30;99.90;;;;;;4920099;29;20051;-86
2022/03/06 06:49:21;;;;;;;15.73;6.63;;;-1.30;99.90;;;;;;4919791;29;20062;-86
2022/03/06 06:51:46;;;;;;;12.60;5.83;;;-0.40;99.90;;;;;;4920476;29;20058;-86
2022/03/06 06:54:13;;;;;;;12.07;5.43;;;-0.10;99.90;;;;;;4910195;29;20047;-86
2022/03/06 06:56:39;;;;;;;11.00;5.07;;;-1.10;99.90;;;;;;4919738;29;20620;-85
2022/03/06 06:59:04;;;;;;;12.67;5.80;;;-0.60;99.90;;;;;;4937530;29;20050;-86
2022/03/06 07:01:30;;;;;;;12.43;5.50;;;-1.00;99.90;;;;;;4937176;29;20051;-87
2022/03/06 07:03:56;;;;;;;12.07;5.27;;;-0.70;99.90;;;;;;4922655;29;20066;-90
2022/03/06 07:06:21;;;;;;;10.43;4.60;;;-0.80;99.90;;;;;;4926657;29;20047;-87
2022/03/06 07:08:47;;;;;;;11.43;5.07;;;-0.70;99.90;;;;;;4931496;29;20470;-88
2022/03/06 07:11:12;;;;;;;11.23;5.30;;;-0.70;99.90;;;;;;4921325;29;20048;-87
2022/03/06 07:13:38;;;;;;;11.73;4.90;;;-0.60;99.90;;;;;;4917035;29;20075;-85
2022/03/06 07:16:04;;;;;;;11.30;5.00;;;-0.60;99.90;;;;;;4917620;29;20094;-86
2022/03/06 07:18:30;;;;;;;11.37;5.00;;;-0.50;99.90;;;;;;4920178;29;20102;-85
2022/03/06 07:20:55;;;;;;;10.37;4.63;;;-0.50;99.90;;;;;;4918707;29;20115;-85
2022/03/06 07:23:21;;;;;;;12.70;4.80;;;-0.40;99.90;;;;;;4919582;29;20039;-85
2022/03/06 07:25:47;;;;;;;11.60;4.43;;;0.70;99.90;;;;;;4937553;29;20575;-85
2022/03/06 07:28:13;;;;;;;11.60;4.60;;;-0.30;99.90;;;;;;4935165;29;20400;-85
2022/03/06 07:30:39;;;;;;;12.27;4.30;;;-0.30;99.90;;;;;;4917904;29;20059;-84
2022/03/06 07:33:10;;;;;;;9.93;4.13;;;-0.30;99.90;;;;;;4934587;29;20059;-86
2022/03/06 07:35:36;;;;;;;11.00;4.50;;;-0.20;99.90;;;;;;4919094;29;20054;-85
2022/03/06 07:38:02;;;;;;;9.90;4.13;;;-0.20;99.90;;;;;;4935751;29;20052;-84
2022/03/06 07:40:27;;;;;;;10.70;4.13;;;-0.10;99.90;;;;;;4935941;29;20040;-86
2022/03/06 07:42:53;;;;;;;9.20;3.27;;;0.60;99.90;;;;;;4917969;29;20047;-85
2022/03/06 07:45:18;;;;;;;8.67;3.60;;;0.00;99.90;;;;;;4918366;29;20106;-87
2022/03/06 07:47:45;;;;;;;11.03;4.00;;;0.20;99.90;;;;;;4918843;29;20043;-86
2022/03/06 07:50:14;;;;;;;10.00;4.20;;;0.00;99.90;;;;;;4918214;29;20098;-85
2022/03/06 07:52:39;;;;;;;9.77;3.90;;;0.20;99.90;;;;;;4919193;29;20051;-86
2022/03/06 07:55:06;;;;;;;10.43;4.20;;;0.80;99.90;;;;;;4936139;29;20051;-85
2022/03/06 07:57:33;;;;;;;11.57;4.17;;;0.10;99.90;;;;;;4935733;29;20088;-86
2022/03/06 07:59:58;;;;;;;10.97;4.47;;;0.10;99.90;;;;;;4918995;29;20052;-87
2022/03/06 08:02:24;;;;;;;9.27;4.00;;;0.10;99.90;;;;;;4948327;29;20116;-85
2022/03/06 08:04:50;;;;;;;13.53;4.20;;;0.10;99.90;;;;;;4945439;29;20428;-86
2022/03/06 08:07:15;;;;;;;10.30;4.40;;;0.20;99.90;;;;;;4918789;29;20051;-86
2022/03/06 08:09:41;;;;;;;11.30;4.60;;;1.00;99.90;;;;;;4919221;29;20043;-86
2022/03/06 08:12:07;;;;;;;11.90;4.97;;;0.10;99.90;;;;;;4917966;29;20059;-86
2022/03/06 08:14:33;;;;;;;10.73;4.60;;;0.20;99.90;;;;;;4918310;29;20503;-86
2022/03/06 08:16:58;;;;;;;10.60;4.77;;;0.20;99.90;;;;;;4917747;29;20143;-86
2022/03/06 08:19:24;;;;;;;10.20;4.80;;;0.30;99.90;;;;;;4935216;29;20543;-86
2022/03/06 08:21:50;;;;;;;11.37;4.80;;;0.30;99.90;;;;;;4935585;29;20139;-86
2022/03/06 08:24:16;;;;;;;12.17;4.77;;;0.40;99.90;;;;;;4917933;29;20063;-85
2022/03/06 08:26:42;;;;;;;10.70;4.57;;;0.40;99.90;;;;;;4918346;29;20070;-87
2022/03/06 08:29:08;;;;;;;12.83;4.97;;;0.50;99.90;;;;;;4935275;29;20058;-86
2022/03/06 08:31:34;;;;;;;9.80;4.53;;;0.60;99.90;;;;;;4917554;29;20051;-87
2022/03/06 08:33:59;;;;;;;10.13;4.43;;;0.50;99.90;;;;;;4919095;29;20463;-88
2022/03/06 08:36:25;;;;;;;11.23;4.50;;;0.40;99.90;;;;;;4919390;29;20115;-90
2022/03/06 08:38:51;;;;;;;11.77;4.20;;;0.50;99.90;;;;;;4918140;29;20412;-87
2022/03/06 08:41:16;;;;;;;10.40;4.50;;;0.50;99.90;;;;;;4935296;29;20047;-87
2022/03/06 08:43:42;;;;;;;10.83;4.77;;;0.60;99.90;;;;;;4918317;29;20404;-87
2022/03/06 08:46:08;;;;;;;11.37;4.67;;;0.60;99.90;;;;;;4918046;29;20121;-88
2022/03/06 08:48:36;;;;;;;10.77;4.00;;;0.70;99.90;;;;;;4918707;29;20051;-88
2022/03/06 08:51:03;;;;;;;10.37;4.17;;;0.70;99.90;;;;;;4918228;29;20056;-87
2022/03/06 08:53:29;;;;;;;10.30;4.50;;;0.80;99.90;;;;;;4917763;29;20075;-87
2022/03/06 08:55:55;;;;;;;10.00;3.87;;;0.90;99.90;;;;;;4920852;29;20089;-87
2022/03/06 08:58:21;;;;;;;10.23;3.87;;;0.90;99.90;;;;;;4935360;29;20523;-87
2022/03/06 09:00:46;;;;;;;10.47;4.37;;;1.00;99.90;;;;;;4934682;29;20048;-87
2022/03/06 09:03:12;;;;;;;9.23;4.07;;;1.10;99.90;;;;;;4918218;29;20058;-87
2022/03/06 09:05:40;;;;;;;10.77;5.27;;;1.10;99.90;;;;;;4920915;29;20135;-87
2022/03/06 09:08:09;;;;;;;9.93;4.93;;;1.20;99.90;;;;;;4917501;29;20482;-88
2022/03/06 09:10:36;;;;;;;9.00;4.23;;;1.30;99.90;;;;;;4918596;29;20083;-88
2022/03/06 09:13:02;;;;;;;9.53;4.00;;;1.40;99.90;;;;;;4918212;29;20075;-91
2022/03/06 09:15:28;;;;;;;10.53;4.33;;;1.40;99.90;;;;;;4918346;29;20044;-88
2022/03/06 09:17:54;;;;;;;10.47;4.10;;;1.50;99.90;;;;;;4917907;29;20051;-88
2022/03/06 09:20:19;;;;;;;12.50;4.17;;;1.60;99.90;;;;;;4917427;29;20053;-88
2022/03/06 09:22:46;;;;;;;10.00;4.27;;;1.60;99.90;;;;;;4918437;29;20484;-88
2022/03/06 09:25:12;;;;;;;9.20;4.07;;;1.70;99.90;;;;;;4917380;29;20066;-88
2022/03/06 09:27:38;;;;;;;9.27;4.10;;;1.80;99.90;;;;;;4917366;29;20059;-88
2022/03/06 09:30:05;;;;;;;12.10;4.10;;;2.00;99.90;;;;;;4919383;29;20047;-87
2022/03/06 09:32:31;;;;;;;9.57;4.20;;;2.00;99.90;;;;;;4921847;29;20047;-87
2022/03/06 09:34:56;;;;;;;10.27;4.10;;;2.00;99.90;;;;;;4921479;29;20051;-88
2022/03/06 09:37:22;;;;;;;11.57;5.03;;;2.00;99.90;;;;;;4921075;29;20049;-88
2022/03/06 09:39:48;;;;;;;9.87;4.00;;;2.00;99.90;;;;;;4922096;29;20097;-89
2022/03/06 09:42:19;;;;;;;10.43;4.10;;;2.10;99.90;;;;;;4920618;29;20058;-88
2022/03/06 09:44:46;;;;;;;9.77;4.27;;;2.20;99.90;;;;;;4921175;29;20044;-88
2022/03/06 09:47:13;;;;;;;9.03;4.13;;;2.20;99.90;;;;;;4921241;29;20488;-88
2022/03/06 09:49:39;;;;;;;9.97;4.67;;;2.30;99.90;;;;;;4919934;29;20480;-88
2022/03/06 09:52:05;;;;;;;11.00;5.07;;;2.60;99.90;;;;;;4920262;29;20050;-89
2022/03/06 09:54:30;;;;;;;10.50;4.40;;;2.40;99.90;;;;;;4920677;29;20035;-88
2022/03/06 09:56:57;;;;;;;10.50;4.33;;;2.60;99.90;;;;;;4919920;29;20055;-89
2022/03/06 09:59:23;;;;;;;10.83;4.70;;;2.70;99.90;;;;;;4919996;29;20051;-88
2022/03/06 10:01:48;;;;;;;11.07;4.53;;;2.90;99.90;;;;;;4920725;29;20054;-88
2022/03/06 10:04:25;;;;;;;9.67;4.73;;;2.80;99.90;;;;;;4919521;29;20048;-88
2022/03/06 10:07:02;;;;;;;10.50;4.77;;;2.90;99.90;;;;;;4920262;29;20054;-88
2022/03/06 10:09:29;;;;;;;9.50;4.40;;;3.00;99.90;;;;;;4919746;29;20131;-88
2022/03/06 10:11:54;;;;;;;10.13;4.80;;;3.00;99.90;;;;;;4920735;29;20051;-89
2022/03/06 10:14:36;;;;;;;10.70;4.57;;;3.60;99.90;;;;;;4919998;29;20154;-88
2022/03/06 10:17:19;;;;;;;10.53;4.40;;;3.20;99.90;;;;;;4920093;29;20504;-89
2022/03/06 10:19:50;;;;;;;10.32;4.70;;;3.30;99.90;;;;;;4921065;29;20043;-88
2022/03/06 10:22:15;;;;;;;10.80;4.43;;;3.50;99.90;;;;;;4919901;29;20500;-88
2022/03/06 10:24:53;;;;;;;10.63;4.80;;;3.70;99.90;;;;;;4919513;29;20044;-89
2022/03/06 10:27:44;;;;;;;9.70;4.17;;;3.80;99.90;;;;;;4919765;29;20052;-89
2022/03/06 10:30:30;;;;;;;9.53;4.30;;;3.90;99.90;;;;;;4920349;29;20047;-89
2022/03/06 10:33:16;;;;;;;10.27;4.53;;;4.00;99.90;;;;;;4920939;29;20066;-88
2022/03/06 10:35:43;;;;;;;11.50;4.80;;;4.10;99.90;;;;;;4920966;29;20060;-89
2022/03/06 10:38:27;;;;;;;9.63;4.33;;;4.10;99.90;;;;;;4919507;29;20063;-88
2022/03/06 10:40:54;;;;;;;9.27;4.22;;;4.10;99.90;;;;;;4920221;29;20043;-89
2022/03/06 10:43:32;;;;;;;9.70;4.10;;;4.20;99.90;;;;;;4919918;29;20059;-88
2022/03/06 10:46:18;;;;;;;9.30;3.93;;;4.30;99.90;;;;;;4920785;29;20134;-88
2022/03/06 10:49:14;;;;;;;10.60;4.37;;;4.40;99.90;;;;;;4920408;29;20044;-90
2022/03/06 10:51:42;;;;;;;8.77;3.87;;;4.50;99.90;;;;;;4919572;29;20456;-90
2022/03/06 10:54:09;;;;;;;8.60;3.90;;;4.60;99.90;;;;;;4922682;29;20080;-90
2022/03/06 10:56:35;;;;;;;10.00;4.07;;;4.70;99.90;;;;;;4920276;29;20048;-90
2022/03/06 10:59:06;;;;;;;8.90;3.70;;;4.80;99.90;;;;;;4918878;29;20044;-90
2022/03/06 11:01:32;;;;;;;9.37;3.77;;;4.90;99.90;;;;;;4925535;29;20044;-86
2022/03/06 11:04:00;;;;;;;8.97;3.60;;;5.10;99.90;;;;;;4944797;29;20095;-89
2022/03/06 11:06:27;;;;;;;9.93;3.80;;;5.20;99.90;;;;;;4942957;29;20042;-90
2022/03/06 11:08:53;;;;;;;9.57;3.77;;;5.20;99.90;;;;;;4922688;29;20142;-90
2022/03/06 11:11:20;;;;;;;8.20;3.33;;;5.20;99.90;;;;;;4909959;29;20511;-89
2022/03/06 11:13:46;;;;;;;9.60;3.60;;;5.40;99.90;;;;;;4909425;29;20052;-89
2022/03/06 11:16:12;;;;;;;9.03;3.27;;;5.60;99.90;;;;;;4906601;29;20142;-90
2022/03/06 11:18:38;;;;;;;10.03;3.43;;;5.80;99.90;;;;;;4910182;29;20131;-90
2022/03/06 11:21:05;;;;;;;8.70;3.37;;;6.00;99.90;;;;;;4908512;29;20051;-91
2022/03/06 11:23:51;;;;;;;8.77;3.33;;;6.00;99.90;;;;;;4908927;29;20036;-90
2022/03/06 11:26:16;;;;;;;8.50;3.23;;;6.10;99.90;;;;;;4906123;29;20511;-90
2022/03/06 11:29:12;;;;;;;8.40;3.13;;;6.10;99.90;;;;;;4904809;29;20082;-89
2022/03/06 11:31:49;;;;;;;8.73;3.13;;;6.20;99.90;;;;;;4904405;29;20048;-91
2022/03/06 11:34:25;;;;;;;8.60;3.20;;;6.00;99.90;;;;;;4907022;29;20039;-90
2022/03/06 11:36:52;;;;;;;7.47;3.00;;;6.00;99.90;;;;;;4904517;29;20054;-90
2022/03/06 11:39:30;;;;;;;8.27;3.27;;;6.00;99.90;;;;;;4910080;29;20098;-89
2022/03/06 11:42:00;;;;;;;7.43;3.00;;;6.20;99.90;;;;;;4907154;29;20079;-90
2022/03/06 11:44:47;;;;;;;7.77;3.00;;;6.20;99.90;;;;;;4921633;29;20048;-90
2022/03/06 11:47:13;;;;;;;8.67;3.40;;;6.10;99.90;;;;;;4908498;29;20500;-90
2022/03/06 11:49:39;;;;;;;8.23;3.00;;;5.80;99.90;;;;;;4905803;29;20494;-90
2022/03/06 11:52:26;;;;;;;8.77;2.93;;;5.90;99.90;;;;;;4909457;29;20083;-90
2022/03/06 11:54:52;;;;;;;8.67;2.80;;;6.20;99.90;;;;;;4905753;29;20052;-91
2022/03/06 11:57:38;;;;;;;8.30;3.03;;;6.40;99.90;;;;;;4907201;29;20042;-88
2022/03/06 12:00:20;;;;;;;10.73;3.13;;;6.60;99.90;;;;;;4907694;29;20075;-89
2022/03/06 12:02:52;;;;;;;8.87;3.07;;;6.70;99.90;;;;;;4903634;29;20051;-88
2022/03/06 12:05:20;;;;;;;7.93;3.10;;;6.70;99.90;;;;;;4910975;29;20448;-91
2022/03/06 12:07:46;;;;;;;9.20;3.10;;;6.80;99.90;;;;;;4903966;29;20055;-89
2022/03/06 12:10:15;;;;;;;8.87;3.23;;;6.70;99.90;;;;;;4905838;29;20052;-87
2022/03/06 12:12:42;;;;;;;8.60;3.20;;;6.90;99.90;;;;;;4912499;29;20063;-88
2022/03/06 12:15:16;;;;;;;8.47;3.20;;;6.80;99.90;;;;;;4914048;29;20475;-89
2022/03/06 12:17:43;;;;;;;8.60;3.23;;;7.00;99.90;;;;;;4902573;29;20059;-92
2022/03/06 12:20:11;;;;;;;9.07;3.30;;;7.10;99.90;;;;;;4905910;29;20047;-87
2022/03/06 12:22:47;;;;;;;7.43;3.00;;;6.80;99.90;;;;;;4911938;29;20094;-87
2022/03/06 12:25:15;;;;;;;7.93;3.00;;;7.10;99.90;;;;;;4917668;29;20044;-87
2022/03/06 12:28:02;;;;;;;8.50;3.50;;;6.80;99.90;;;;;;4917953;29;20058;-88
2022/03/06 12:30:28;;;;;;;8.93;3.30;;;6.80;99.90;;;;;;4934045;29;20126;-87
2022/03/06 12:32:54;;;;;;;8.97;3.20;;;7.10;99.90;;;;;;4935337;29;20051;-88
2022/03/06 12:35:22;;;;;;;8.87;3.40;;;7.20;99.90;;;;;;4935524;29;20191;-90
2022/03/06 12:37:59;;;;;;;7.60;2.83;;;7.10;99.90;;;;;;4917800;29;20558;-87
2022/03/06 12:40:27;;;;;;;8.33;3.33;;;7.00;98.70;;;;;;4914439;29;20074;-88